sensor_id;sensor_type;location;lat;lon;timestamp;P1;durP1;ratioP1;P2;durP2;ratioP2
44486;SDS011;30191;50.908;6.962;2022-12-07T00:01:32;24.38;;;15.65;;
44486;SDS011;30191;50.908;6.962;2022-12-07T00:04:00;23.45;;;15.25;;
44486;SDS011;30191;50.908;6.962;2022-12-07T00:06:34;21.08;;;15.30;;
44486;SDS011;30191;50.908;6.962;2022-12-07T00:09:03;22.33;;;16.08;;
44486;SDS011;30191;50.908;6.962;2022-12-07T00:11:30;24.58;;;15.02;;
44486;SDS011;30191;50.908;6.962;2022-12-07T00:13:57;24.83;;;15.65;;
44486;SDS011;30191;50.908;6.962;2022-12-07T00:16:26;23.42;;;16.13;;
44486;SDS011;30191;50.908;6.962;2022-12-07T00:18:53;21.00;;;14.95;;
44486;SDS011;30191;50.908;6.962;2022-12-07T00:21:23;22.08;;;15.73;;
44486;SDS011;30191;50.908;6.962;2022-12-07T00:23:51;25.33;;;15.60;;
44486;SDS011;30191;50.908;6.962;2022-12-07T00:28:48;23.30;;;15.60;;
44486;SDS011;30191;50.908;6.962;2022-12-07T00:31:16;20.73;;;16.35;;
44486;SDS011;30191;50.908;6.962;2022-12-07T00:33:43;21.70;;;17.27;;
44486;SDS011;30191;50.908;6.962;2022-12-07T00:36:10;24.70;;;16.33;;
44486;SDS011;30191;50.908;6.962;2022-12-07T00:38:38;24.58;;;16.90;;
44486;SDS011;30191;50.908;6.962;2022-12-07T00:41:06;27.73;;;16.88;;
44486;SDS011;30191;50.908;6.962;2022-12-07T00:43:35;26.25;;;17.40;;
44486;SDS011;30191;50.908;6.962;2022-12-07T00:46:00;23.58;;;16.75;;
44486;SDS011;30191;50.908;6.962;2022-12-07T00:48:26;23.52;;;17.45;;
44486;SDS011;30191;50.908;6.962;2022-12-07T00:50:52;22.83;;;17.02;;
44486;SDS011;30191;50.908;6.962;2022-12-07T00:53:18;22.27;;;17.00;;
44486;SDS011;30191;50.908;6.962;2022-12-07T00:55:44;21.52;;;16.30;;
44486;SDS011;30191;50.908;6.962;2022-12-07T00:58:10;23.05;;;17.40;;
44486;SDS011;30191;50.908;6.962;2022-12-07T01:00:37;25.25;;;17.20;;
44486;SDS011;30191;50.908;6.962;2022-12-07T01:03:04;24.27;;;17.70;;
44486;SDS011;30191;50.908;6.962;2022-12-07T01:05:30;25.70;;;18.13;;
44486;SDS011;30191;50.908;6.962;2022-12-07T01:07:56;25.70;;;18.33;;
44486;SDS011;30191;50.908;6.962;2022-12-07T01:10:21;25.63;;;17.40;;
44486;SDS011;30191;50.908;6.962;2022-12-07T01:12:47;23.75;;;18.05;;
44486;SDS011;30191;50.908;6.962;2022-12-07T01:15:13;27.00;;;17.30;;
44486;SDS011;30191;50.908;6.962;2022-12-07T01:17:38;23.70;;;18.02;;
44486;SDS011;30191;50.908;6.962;2022-12-07T01:20:04;26.30;;;18.65;;
44486;SDS011;30191;50.908;6.962;2022-12-07T01:22:30;22.05;;;17.10;;
44486;SDS011;30191;50.908;6.962;2022-12-07T01:24:56;26.85;;;19.15;;
44486;SDS011;30191;50.908;6.962;2022-12-07T01:27:22;23.98;;;17.58;;
44486;SDS011;30191;50.908;6.962;2022-12-07T01:29:47;25.13;;;18.25;;
44486;SDS011;30191;50.908;6.962;2022-12-07T01:32:13;26.27;;;17.33;;
44486;SDS011;30191;50.908;6.962;2022-12-07T01:34:39;24.27;;;17.77;;
44486;SDS011;30191;50.908;6.962;2022-12-07T01:37:04;25.35;;;18.88;;
44486;SDS011;30191;50.908;6.962;2022-12-07T01:39:30;25.13;;;17.67;;
44486;SDS011;30191;50.908;6.962;2022-12-07T01:41:55;23.40;;;18.23;;
44486;SDS011;30191;50.908;6.962;2022-12-07T01:44:25;23.25;;;17.90;;
44486;SDS011;30191;50.908;6.962;2022-12-07T01:49:37;22.98;;;17.65;;
44486;SDS011;30191;50.908;6.962;2022-12-07T01:52:16;24.33;;;18.63;;
44486;SDS011;30191;50.908;6.962;2022-12-07T01:54:45;28.00;;;19.15;;
44486;SDS011;30191;50.908;6.962;2022-12-07T01:57:14;28.42;;;19.00;;
44486;SDS011;30191;50.908;6.962;2022-12-07T01:59:42;23.27;;;17.92;;
44486;SDS011;30191;50.908;6.962;2022-12-07T02:02:10;21.67;;;18.80;;
44486;SDS011;30191;50.908;6.962;2022-12-07T02:04:43;22.83;;;18.70;;
44486;SDS011;30191;50.908;6.962;2022-12-07T02:07:09;25.33;;;18.90;;
44486;SDS011;30191;50.908;6.962;2022-12-07T02:09:35;30.77;;;18.98;;
44486;SDS011;30191;50.908;6.962;2022-12-07T02:12:01;31.95;;;20.75;;
44486;SDS011;30191;50.908;6.962;2022-12-07T02:14:27;24.42;;;18.60;;
44486;SDS011;30191;50.908;6.962;2022-12-07T02:22:15;25.38;;;18.73;;
44486;SDS011;30191;50.908;6.962;2022-12-07T02:35:32;28.40;;;18.95;;
44486;SDS011;30191;50.908;6.962;2022-12-07T02:41:02;24.50;;;18.33;;
44486;SDS011;30191;50.908;6.962;2022-12-07T02:43:39;22.55;;;17.98;;
44486;SDS011;30191;50.908;6.962;2022-12-07T02:46:34;23.35;;;17.42;;
44486;SDS011;30191;50.908;6.962;2022-12-07T02:49:04;22.85;;;18.10;;
44486;SDS011;30191;50.908;6.962;2022-12-07T02:51:32;24.08;;;17.55;;
44486;SDS011;30191;50.908;6.962;2022-12-07T02:53:58;27.30;;;18.45;;
44486;SDS011;30191;50.908;6.962;2022-12-07T03:09:37;23.73;;;18.02;;
44486;SDS011;30191;50.908;6.962;2022-12-07T03:14:43;25.38;;;18.75;;
44486;SDS011;30191;50.908;6.962;2022-12-07T03:17:19;24.73;;;19.02;;
44486;SDS011;30191;50.908;6.962;2022-12-07T03:19:50;24.13;;;19.17;;
44486;SDS011;30191;50.908;6.962;2022-12-07T03:22:20;26.77;;;19.75;;
44486;SDS011;30191;50.908;6.962;2022-12-07T03:24:51;28.52;;;19.77;;
44486;SDS011;30191;50.908;6.962;2022-12-07T03:27:21;23.98;;;19.67;;
44486;SDS011;30191;50.908;6.962;2022-12-07T03:30:00;30.13;;;20.20;;
44486;SDS011;30191;50.908;6.962;2022-12-07T03:35:12;24.80;;;18.83;;
44486;SDS011;30191;50.908;6.962;2022-12-07T03:37:48;25.85;;;18.58;;
44486;SDS011;30191;50.908;6.962;2022-12-07T03:40:29;24.60;;;19.33;;
44486;SDS011;30191;50.908;6.962;2022-12-07T03:43:02;24.35;;;19.20;;
44486;SDS011;30191;50.908;6.962;2022-12-07T03:45:39;23.40;;;19.55;;
44486;SDS011;30191;50.908;6.962;2022-12-07T03:50:55;25.63;;;18.38;;
44486;SDS011;30191;50.908;6.962;2022-12-07T03:53:43;24.77;;;18.65;;
44486;SDS011;30191;50.908;6.962;2022-12-07T03:56:30;24.95;;;18.48;;
44486;SDS011;30191;50.908;6.962;2022-12-07T03:58:57;23.75;;;18.85;;
44486;SDS011;30191;50.908;6.962;2022-12-07T04:01:23;26.27;;;19.40;;
44486;SDS011;30191;50.908;6.962;2022-12-07T04:03:49;27.85;;;18.63;;
44486;SDS011;30191;50.908;6.962;2022-12-07T04:06:15;23.40;;;18.25;;
44486;SDS011;30191;50.908;6.962;2022-12-07T04:08:40;24.77;;;18.65;;
44486;SDS011;30191;50.908;6.962;2022-12-07T04:11:06;26.80;;;18.40;;
44486;SDS011;30191;50.908;6.962;2022-12-07T04:13:32;24.50;;;17.60;;
44486;SDS011;30191;50.908;6.962;2022-12-07T04:16:18;23.25;;;17.75;;
44486;SDS011;30191;50.908;6.962;2022-12-07T04:18:43;23.23;;;18.10;;
44486;SDS011;30191;50.908;6.962;2022-12-07T04:21:09;25.58;;;18.33;;
44486;SDS011;30191;50.908;6.962;2022-12-07T04:23:35;23.30;;;17.25;;
44486;SDS011;30191;50.908;6.962;2022-12-07T04:26:00;23.13;;;18.00;;
44486;SDS011;30191;50.908;6.962;2022-12-07T04:28:26;22.48;;;18.83;;
44486;SDS011;30191;50.908;6.962;2022-12-07T04:30:52;23.70;;;18.38;;
44486;SDS011;30191;50.908;6.962;2022-12-07T04:33:17;24.90;;;18.40;;
44486;SDS011;30191;50.908;6.962;2022-12-07T04:35:43;26.67;;;18.50;;
44486;SDS011;30191;50.908;6.962;2022-12-07T04:38:08;23.48;;;18.38;;
44486;SDS011;30191;50.908;6.962;2022-12-07T04:40:34;25.42;;;18.50;;
44486;SDS011;30191;50.908;6.962;2022-12-07T04:43:00;26.00;;;18.13;;
44486;SDS011;30191;50.908;6.962;2022-12-07T04:45:25;28.15;;;17.45;;
44486;SDS011;30191;50.908;6.962;2022-12-07T04:47:51;23.67;;;17.33;;
44486;SDS011;30191;50.908;6.962;2022-12-07T04:50:17;22.23;;;18.15;;
44486;SDS011;30191;50.908;6.962;2022-12-07T04:52:42;22.98;;;17.50;;
44486;SDS011;30191;50.908;6.962;2022-12-07T04:55:08;25.85;;;18.40;;
44486;SDS011;30191;50.908;6.962;2022-12-07T04:57:34;26.33;;;18.38;;
44486;SDS011;30191;50.908;6.962;2022-12-07T04:59:59;22.13;;;17.50;;
44486;SDS011;30191;50.908;6.962;2022-12-07T05:02:25;25.20;;;18.02;;
44486;SDS011;30191;50.908;6.962;2022-12-07T05:04:50;26.00;;;17.30;;
44486;SDS011;30191;50.908;6.962;2022-12-07T05:07:16;21.75;;;17.60;;
44486;SDS011;30191;50.908;6.962;2022-12-07T05:09:42;23.80;;;17.13;;
44486;SDS011;30191;50.908;6.962;2022-12-07T05:12:07;25.00;;;17.63;;
44486;SDS011;30191;50.908;6.962;2022-12-07T05:14:33;25.63;;;17.40;;
44486;SDS011;30191;50.908;6.962;2022-12-07T05:16:59;21.40;;;17.48;;
44486;SDS011;30191;50.908;6.962;2022-12-07T05:19:24;24.02;;;17.08;;
44486;SDS011;30191;50.908;6.962;2022-12-07T05:21:51;21.77;;;17.42;;
44486;SDS011;30191;50.908;6.962;2022-12-07T05:24:17;23.27;;;17.23;;
44486;SDS011;30191;50.908;6.962;2022-12-07T05:26:43;22.17;;;17.30;;
44486;SDS011;30191;50.908;6.962;2022-12-07T05:29:10;22.40;;;17.50;;
44486;SDS011;30191;50.908;6.962;2022-12-07T05:31:38;22.40;;;16.20;;
44486;SDS011;30191;50.908;6.962;2022-12-07T05:34:03;24.35;;;16.42;;
44486;SDS011;30191;50.908;6.962;2022-12-07T05:36:29;20.48;;;16.00;;
44486;SDS011;30191;50.908;6.962;2022-12-07T05:38:56;19.45;;;15.73;;
44486;SDS011;30191;50.908;6.962;2022-12-07T05:41:23;20.38;;;15.85;;
44486;SDS011;30191;50.908;6.962;2022-12-07T05:44:07;20.60;;;15.68;;
44486;SDS011;30191;50.908;6.962;2022-12-07T05:46:33;22.15;;;16.60;;
44486;SDS011;30191;50.908;6.962;2022-12-07T05:48:59;22.65;;;16.27;;
44486;SDS011;30191;50.908;6.962;2022-12-07T05:51:25;25.50;;;17.55;;
44486;SDS011;30191;50.908;6.962;2022-12-07T05:53:51;22.65;;;17.63;;
44486;SDS011;30191;50.908;6.962;2022-12-07T05:56:16;27.90;;;18.45;;
44486;SDS011;30191;50.908;6.962;2022-12-07T05:58:42;25.27;;;18.45;;
44486;SDS011;30191;50.908;6.962;2022-12-07T06:01:26;25.88;;;18.27;;
44486;SDS011;30191;50.908;6.962;2022-12-07T06:03:52;24.38;;;18.20;;
44486;SDS011;30191;50.908;6.962;2022-12-07T06:06:18;24.77;;;17.35;;
44486;SDS011;30191;50.908;6.962;2022-12-07T06:08:43;24.90;;;17.58;;
44486;SDS011;30191;50.908;6.962;2022-12-07T06:11:09;23.73;;;17.50;;
44486;SDS011;30191;50.908;6.962;2022-12-07T06:13:53;23.13;;;17.27;;
44486;SDS011;30191;50.908;6.962;2022-12-07T06:16:18;27.67;;;17.13;;
44486;SDS011;30191;50.908;6.962;2022-12-07T06:18:44;21.33;;;16.90;;
44486;SDS011;30191;50.908;6.962;2022-12-07T06:21:10;23.58;;;16.90;;
44486;SDS011;30191;50.908;6.962;2022-12-07T06:23:35;25.85;;;18.30;;
44486;SDS011;30191;50.908;6.962;2022-12-07T06:26:01;23.45;;;18.58;;
44486;SDS011;30191;50.908;6.962;2022-12-07T06:28:27;24.50;;;17.95;;
44486;SDS011;30191;50.908;6.962;2022-12-07T06:31:00;24.92;;;18.52;;
44486;SDS011;30191;50.908;6.962;2022-12-07T06:33:26;24.33;;;18.48;;
44486;SDS011;30191;50.908;6.962;2022-12-07T06:35:52;28.10;;;19.63;;
44486;SDS011;30191;50.908;6.962;2022-12-07T06:38:18;28.95;;;19.70;;
44486;SDS011;30191;50.908;6.962;2022-12-07T06:40:44;26.67;;;19.10;;
44486;SDS011;30191;50.908;6.962;2022-12-07T06:43:09;27.65;;;19.85;;
44486;SDS011;30191;50.908;6.962;2022-12-07T06:45:35;31.98;;;20.38;;
44486;SDS011;30191;50.908;6.962;2022-12-07T06:48:01;29.70;;;20.25;;
44486;SDS011;30191;50.908;6.962;2022-12-07T06:50:29;26.42;;;19.08;;
44486;SDS011;30191;50.908;6.962;2022-12-07T06:52:55;31.30;;;20.13;;
44486;SDS011;30191;50.908;6.962;2022-12-07T06:55:20;28.85;;;19.77;;
44486;SDS011;30191;50.908;6.962;2022-12-07T06:57:46;25.48;;;19.40;;
44486;SDS011;30191;50.908;6.962;2022-12-07T07:00:12;26.73;;;20.50;;
44486;SDS011;30191;50.908;6.962;2022-12-07T07:02:38;28.65;;;19.73;;
44486;SDS011;30191;50.908;6.962;2022-12-07T07:05:04;23.73;;;18.38;;
44486;SDS011;30191;50.908;6.962;2022-12-07T07:07:30;24.65;;;18.88;;
44486;SDS011;30191;50.908;6.962;2022-12-07T07:09:56;28.83;;;19.60;;
44486;SDS011;30191;50.908;6.962;2022-12-07T07:12:21;27.25;;;18.42;;
44486;SDS011;30191;50.908;6.962;2022-12-07T07:14:47;25.67;;;19.42;;
44486;SDS011;30191;50.908;6.962;2022-12-07T07:17:12;26.35;;;18.85;;
44486;SDS011;30191;50.908;6.962;2022-12-07T07:19:38;27.15;;;19.80;;
44486;SDS011;30191;50.908;6.962;2022-12-07T07:22:04;25.17;;;18.30;;
44486;SDS011;30191;50.908;6.962;2022-12-07T07:24:30;22.85;;;18.55;;
44486;SDS011;30191;50.908;6.962;2022-12-07T07:26:55;25.35;;;19.83;;
44486;SDS011;30191;50.908;6.962;2022-12-07T07:29:21;27.20;;;19.58;;
44486;SDS011;30191;50.908;6.962;2022-12-07T07:31:46;25.88;;;18.60;;
44486;SDS011;30191;50.908;6.962;2022-12-07T07:34:12;25.17;;;18.50;;
44486;SDS011;30191;50.908;6.962;2022-12-07T07:36:38;26.63;;;18.98;;
44486;SDS011;30191;50.908;6.962;2022-12-07T07:39:03;25.83;;;20.05;;
44486;SDS011;30191;50.908;6.962;2022-12-07T07:41:29;24.67;;;19.33;;
44486;SDS011;30191;50.908;6.962;2022-12-07T07:43:56;28.23;;;20.25;;
44486;SDS011;30191;50.908;6.962;2022-12-07T07:46:22;25.40;;;19.52;;
44486;SDS011;30191;50.908;6.962;2022-12-07T07:48:48;27.27;;;18.27;;
44486;SDS011;30191;50.908;6.962;2022-12-07T07:51:13;24.27;;;18.73;;
44486;SDS011;30191;50.908;6.962;2022-12-07T07:53:39;26.80;;;19.65;;
44486;SDS011;30191;50.908;6.962;2022-12-07T07:56:05;24.90;;;19.00;;
44486;SDS011;30191;50.908;6.962;2022-12-07T07:58:30;26.30;;;19.85;;
44486;SDS011;30191;50.908;6.962;2022-12-07T08:00:56;28.02;;;19.45;;
44486;SDS011;30191;50.908;6.962;2022-12-07T08:03:22;26.10;;;19.38;;
44486;SDS011;30191;50.908;6.962;2022-12-07T08:05:47;23.25;;;18.75;;
44486;SDS011;30191;50.908;6.962;2022-12-07T08:08:13;28.85;;;19.67;;
44486;SDS011;30191;50.908;6.962;2022-12-07T08:10:38;22.83;;;18.23;;
44486;SDS011;30191;50.908;6.962;2022-12-07T08:13:04;22.83;;;19.17;;
44486;SDS011;30191;50.908;6.962;2022-12-07T08:15:37;24.55;;;18.58;;
44486;SDS011;30191;50.908;6.962;2022-12-07T08:18:04;26.25;;;18.35;;
44486;SDS011;30191;50.908;6.962;2022-12-07T08:20:30;22.65;;;18.33;;
44486;SDS011;30191;50.908;6.962;2022-12-07T08:22:57;25.80;;;18.30;;
44486;SDS011;30191;50.908;6.962;2022-12-07T08:25:23;24.33;;;17.30;;
44486;SDS011;30191;50.908;6.962;2022-12-07T08:27:50;23.55;;;16.67;;
44486;SDS011;30191;50.908;6.962;2022-12-07T08:30:16;23.00;;;16.98;;
44486;SDS011;30191;50.908;6.962;2022-12-07T08:32:43;22.00;;;16.48;;
44486;SDS011;30191;50.908;6.962;2022-12-07T08:35:10;23.30;;;16.17;;
44486;SDS011;30191;50.908;6.962;2022-12-07T08:37:36;21.00;;;14.98;;
44486;SDS011;30191;50.908;6.962;2022-12-07T08:40:02;19.52;;;14.95;;
44486;SDS011;30191;50.908;6.962;2022-12-07T08:42:29;19.52;;;14.77;;
44486;SDS011;30191;50.908;6.962;2022-12-07T08:45:03;19.23;;;14.25;;
44486;SDS011;30191;50.908;6.962;2022-12-07T08:47:30;20.42;;;14.10;;
44486;SDS011;30191;50.908;6.962;2022-12-07T08:49:57;20.58;;;13.45;;
44486;SDS011;30191;50.908;6.962;2022-12-07T08:52:28;18.67;;;12.85;;
44486;SDS011;30191;50.908;6.962;2022-12-07T08:54:57;15.55;;;12.65;;
44486;SDS011;30191;50.908;6.962;2022-12-07T08:57:24;18.55;;;13.35;;
44486;SDS011;30191;50.908;6.962;2022-12-07T08:59:52;20.25;;;12.60;;
44486;SDS011;30191;50.908;6.962;2022-12-07T09:02:17;18.55;;;13.35;;
44486;SDS011;30191;50.908;6.962;2022-12-07T09:04:43;21.20;;;13.00;;
44486;SDS011;30191;50.908;6.962;2022-12-07T09:07:09;24.45;;;13.00;;
44486;SDS011;30191;50.908;6.962;2022-12-07T09:09:34;16.92;;;12.40;;
44486;SDS011;30191;50.908;6.962;2022-12-07T09:12:00;21.08;;;11.70;;
44486;SDS011;30191;50.908;6.962;2022-12-07T09:14:26;17.33;;;12.57;;
44486;SDS011;30191;50.908;6.962;2022-12-07T09:16:51;17.45;;;11.90;;
44486;SDS011;30191;50.908;6.962;2022-12-07T09:19:17;18.63;;;11.98;;
44486;SDS011;30191;50.908;6.962;2022-12-07T09:21:43;21.17;;;12.38;;
44486;SDS011;30191;50.908;6.962;2022-12-07T09:24:08;29.45;;;17.45;;
44486;SDS011;30191;50.908;6.962;2022-12-07T09:26:34;22.60;;;13.10;;
44486;SDS011;30191;50.908;6.962;2022-12-07T09:29:00;19.85;;;12.32;;
44486;SDS011;30191;50.908;6.962;2022-12-07T09:31:27;20.25;;;11.98;;
44486;SDS011;30191;50.908;6.962;2022-12-07T09:33:54;18.00;;;11.40;;
44486;SDS011;30191;50.908;6.962;2022-12-07T09:36:20;18.30;;;12.23;;
44486;SDS011;30191;50.908;6.962;2022-12-07T09:38:46;18.20;;;11.73;;
44486;SDS011;30191;50.908;6.962;2022-12-07T09:41:11;17.70;;;11.60;;
44486;SDS011;30191;50.908;6.962;2022-12-07T09:43:37;17.13;;;11.25;;
44486;SDS011;30191;50.908;6.962;2022-12-07T09:46:05;18.13;;;11.43;;
44486;SDS011;30191;50.908;6.962;2022-12-07T09:48:32;17.67;;;12.02;;
44486;SDS011;30191;50.908;6.962;2022-12-07T09:51:02;20.23;;;12.07;;
44486;SDS011;30191;50.908;6.962;2022-12-07T09:53:34;15.55;;;10.90;;
44486;SDS011;30191;50.908;6.962;2022-12-07T09:56:02;18.25;;;11.82;;
44486;SDS011;30191;50.908;6.962;2022-12-07T09:58:29;21.83;;;11.15;;
44486;SDS011;30191;50.908;6.962;2022-12-07T10:00:57;24.95;;;13.52;;
44486;SDS011;30191;50.908;6.962;2022-12-07T10:03:28;18.40;;;12.02;;
44486;SDS011;30191;50.908;6.962;2022-12-07T10:05:54;17.23;;;11.32;;
44486;SDS011;30191;50.908;6.962;2022-12-07T10:08:22;15.48;;;11.02;;
44486;SDS011;30191;50.908;6.962;2022-12-07T10:10:51;17.58;;;11.38;;
44486;SDS011;30191;50.908;6.962;2022-12-07T10:13:19;19.30;;;11.10;;
44486;SDS011;30191;50.908;6.962;2022-12-07T10:15:51;16.27;;;10.35;;
44486;SDS011;30191;50.908;6.962;2022-12-07T10:23:43;15.80;;;10.50;;
44486;SDS011;30191;50.908;6.962;2022-12-07T10:26:36;15.57;;;10.32;;
44486;SDS011;30191;50.908;6.962;2022-12-07T10:29:15;14.68;;;8.93;;
44486;SDS011;30191;50.908;6.962;2022-12-07T10:31:42;15.55;;;8.48;;
44486;SDS011;30191;50.908;6.962;2022-12-07T10:34:42;10.93;;;8.38;;
44486;SDS011;30191;50.908;6.962;2022-12-07T10:39:46;12.27;;;8.37;;
44486;SDS011;30191;50.908;6.962;2022-12-07T10:42:17;11.83;;;7.87;;
44486;SDS011;30191;50.908;6.962;2022-12-07T10:44:44;13.07;;;7.75;;
44486;SDS011;30191;50.908;6.962;2022-12-07T10:47:33;15.57;;;8.00;;
44486;SDS011;30191;50.908;6.962;2022-12-07T10:55:32;13.48;;;7.75;;
44486;SDS011;30191;50.908;6.962;2022-12-07T11:03:40;13.25;;;8.32;;
44486;SDS011;30191;50.908;6.962;2022-12-07T11:09:00;12.20;;;6.95;;
44486;SDS011;30191;50.908;6.962;2022-12-07T11:14:23;12.02;;;6.53;;
44486;SDS011;30191;50.908;6.962;2022-12-07T11:17:05;10.55;;;5.95;;
44486;SDS011;30191;50.908;6.962;2022-12-07T11:27:34;13.18;;;5.50;;
44486;SDS011;30191;50.908;6.962;2022-12-07T11:32:50;14.10;;;5.70;;
44486;SDS011;30191;50.908;6.962;2022-12-07T11:38:16;16.23;;;6.07;;
44486;SDS011;30191;50.908;6.962;2022-12-07T11:40:48;16.20;;;6.47;;
44486;SDS011;30191;50.908;6.962;2022-12-07T11:45:53;12.98;;;6.30;;
44486;SDS011;30191;50.908;6.962;2022-12-07T11:48:32;12.95;;;5.38;;
44486;SDS011;30191;50.908;6.962;2022-12-07T11:51:03;10.85;;;5.65;;
44486;SDS011;30191;50.908;6.962;2022-12-07T11:53:36;15.30;;;5.53;;
44486;SDS011;30191;50.908;6.962;2022-12-07T11:56:15;16.80;;;5.53;;
44486;SDS011;30191;50.908;6.962;2022-12-07T12:03:40;10.90;;;5.53;;
44486;SDS011;30191;50.908;6.962;2022-12-07T12:06:09;11.30;;;5.78;;
44486;SDS011;30191;50.908;6.962;2022-12-07T12:08:39;15.50;;;6.60;;
44486;SDS011;30191;50.908;6.962;2022-12-07T12:12:00;13.77;;;7.18;;
44486;SDS011;30191;50.908;6.962;2022-12-07T12:22:36;13.30;;;7.88;;
44486;SDS011;30191;50.908;6.962;2022-12-07T12:25:15;18.75;;;8.93;;
44486;SDS011;30191;50.908;6.962;2022-12-07T12:27:50;18.00;;;8.77;;
44486;SDS011;30191;50.908;6.962;2022-12-07T12:30:32;13.40;;;7.90;;
44486;SDS011;30191;50.908;6.962;2022-12-07T12:33:26;14.55;;;8.20;;
44486;SDS011;30191;50.908;6.962;2022-12-07T12:46:47;17.48;;;8.63;;
44486;SDS011;30191;50.908;6.962;2022-12-07T13:01:47;16.90;;;9.20;;
44486;SDS011;30191;50.908;6.962;2022-12-07T13:04:16;17.58;;;9.25;;
44486;SDS011;30191;50.908;6.962;2022-12-07T13:06:50;15.85;;;8.95;;
44486;SDS011;30191;50.908;6.962;2022-12-07T13:09:34;16.30;;;8.40;;
44486;SDS011;30191;50.908;6.962;2022-12-07T13:12:02;16.30;;;8.63;;
44486;SDS011;30191;50.908;6.962;2022-12-07T13:20:00;12.93;;;8.48;;
44486;SDS011;30191;50.908;6.962;2022-12-07T13:24:56;13.25;;;8.05;;
44486;SDS011;30191;50.908;6.962;2022-12-07T13:27:48;15.00;;;7.68;;
44486;SDS011;30191;50.908;6.962;2022-12-07T13:30:22;13.40;;;8.10;;
44486;SDS011;30191;50.908;6.962;2022-12-07T13:32:55;13.57;;;8.40;;
44486;SDS011;30191;50.908;6.962;2022-12-07T13:37:56;14.50;;;8.32;;
44486;SDS011;30191;50.908;6.962;2022-12-07T13:40:23;14.25;;;8.13;;
44486;SDS011;30191;50.908;6.962;2022-12-07T13:42:56;18.52;;;7.85;;
44486;SDS011;30191;50.908;6.962;2022-12-07T13:45:28;15.45;;;8.00;;
44486;SDS011;30191;50.908;6.962;2022-12-07T13:48:15;15.88;;;7.90;;
44486;SDS011;30191;50.908;6.962;2022-12-07T13:50:47;12.02;;;7.53;;
44486;SDS011;30191;50.908;6.962;2022-12-07T13:53:18;18.05;;;8.00;;
44486;SDS011;30191;50.908;6.962;2022-12-07T13:55:44;15.55;;;7.32;;
44486;SDS011;30191;50.908;6.962;2022-12-07T13:58:11;14.38;;;7.15;;
44486;SDS011;30191;50.908;6.962;2022-12-07T14:00:37;12.50;;;6.45;;
44486;SDS011;30191;50.908;6.962;2022-12-07T14:06:03;13.55;;;6.72;;
44486;SDS011;30191;50.908;6.962;2022-12-07T14:08:29;10.88;;;5.70;;
44486;SDS011;30191;50.908;6.962;2022-12-07T14:10:55;15.18;;;6.28;;
44486;SDS011;30191;50.908;6.962;2022-12-07T14:18:30;9.63;;;5.95;;
44486;SDS011;30191;50.908;6.962;2022-12-07T14:21:13;12.95;;;5.90;;
44486;SDS011;30191;50.908;6.962;2022-12-07T14:23:42;10.57;;;6.97;;
44486;SDS011;30191;50.908;6.962;2022-12-07T14:26:14;13.48;;;6.60;;
44486;SDS011;30191;50.908;6.962;2022-12-07T14:28:44;10.32;;;6.68;;
44486;SDS011;30191;50.908;6.962;2022-12-07T14:31:11;15.63;;;7.75;;
44486;SDS011;30191;50.908;6.962;2022-12-07T14:33:46;12.95;;;8.38;;
44486;SDS011;30191;50.908;6.962;2022-12-07T14:36:12;11.55;;;6.95;;
44486;SDS011;30191;50.908;6.962;2022-12-07T14:38:38;13.52;;;6.63;;
44486;SDS011;30191;50.908;6.962;2022-12-07T14:41:06;14.90;;;7.45;;
44486;SDS011;30191;50.908;6.962;2022-12-07T14:43:57;17.42;;;8.40;;
44486;SDS011;30191;50.908;6.962;2022-12-07T14:46:22;13.75;;;7.40;;
44486;SDS011;30191;50.908;6.962;2022-12-07T14:48:48;13.82;;;7.72;;
44486;SDS011;30191;50.908;6.962;2022-12-07T14:51:14;13.32;;;7.80;;
44486;SDS011;30191;50.908;6.962;2022-12-07T14:53:42;11.98;;;7.38;;
44486;SDS011;30191;50.908;6.962;2022-12-07T14:56:14;14.63;;;8.10;;
44486;SDS011;30191;50.908;6.962;2022-12-07T14:58:39;12.57;;;7.50;;
44486;SDS011;30191;50.908;6.962;2022-12-07T15:01:05;14.27;;;7.43;;
44486;SDS011;30191;50.908;6.962;2022-12-07T15:03:31;15.75;;;8.00;;
44486;SDS011;30191;50.908;6.962;2022-12-07T15:05:59;14.80;;;7.20;;
44486;SDS011;30191;50.908;6.962;2022-12-07T15:08:25;13.05;;;7.93;;
44486;SDS011;30191;50.908;6.962;2022-12-07T15:10:51;13.15;;;7.32;;
44486;SDS011;30191;50.908;6.962;2022-12-07T15:13:17;12.95;;;7.38;;
44486;SDS011;30191;50.908;6.962;2022-12-07T15:16:13;12.98;;;8.10;;
44486;SDS011;30191;50.908;6.962;2022-12-07T15:18:41;13.27;;;8.10;;
44486;SDS011;30191;50.908;6.962;2022-12-07T15:21:11;12.75;;;7.22;;
44486;SDS011;30191;50.908;6.962;2022-12-07T15:23:39;13.60;;;7.47;;
44486;SDS011;30191;50.908;6.962;2022-12-07T15:26:04;13.60;;;7.80;;
44486;SDS011;30191;50.908;6.962;2022-12-07T15:28:30;11.48;;;7.25;;
44486;SDS011;30191;50.908;6.962;2022-12-07T15:30:56;17.42;;;8.05;;
44486;SDS011;30191;50.908;6.962;2022-12-07T15:33:22;15.55;;;7.88;;
44486;SDS011;30191;50.908;6.962;2022-12-07T15:35:47;12.73;;;7.68;;
44486;SDS011;30191;50.908;6.962;2022-12-07T15:38:13;16.20;;;9.10;;
44486;SDS011;30191;50.908;6.962;2022-12-07T15:40:39;11.60;;;6.43;;
44486;SDS011;30191;50.908;6.962;2022-12-07T15:43:04;10.77;;;6.13;;
44486;SDS011;30191;50.908;6.962;2022-12-07T15:45:50;9.30;;;5.88;;
44486;SDS011;30191;50.908;6.962;2022-12-07T15:48:16;11.05;;;4.85;;
44486;SDS011;30191;50.908;6.962;2022-12-07T15:50:42;9.07;;;4.75;;
44486;SDS011;30191;50.908;6.962;2022-12-07T15:53:07;8.65;;;5.65;;
44486;SDS011;30191;50.908;6.962;2022-12-07T15:55:33;9.15;;;5.53;;
44486;SDS011;30191;50.908;6.962;2022-12-07T15:57:59;11.00;;;6.20;;
44486;SDS011;30191;50.908;6.962;2022-12-07T16:00:26;11.40;;;6.72;;
44486;SDS011;30191;50.908;6.962;2022-12-07T16:02:51;13.48;;;6.82;;
44486;SDS011;30191;50.908;6.962;2022-12-07T16:05:17;15.68;;;7.43;;
44486;SDS011;30191;50.908;6.962;2022-12-07T16:07:42;13.18;;;6.95;;
44486;SDS011;30191;50.908;6.962;2022-12-07T16:10:11;13.90;;;7.03;;
44486;SDS011;30191;50.908;6.962;2022-12-07T16:12:37;9.88;;;5.75;;
44486;SDS011;30191;50.908;6.962;2022-12-07T16:15:02;9.70;;;6.35;;
44486;SDS011;30191;50.908;6.962;2022-12-07T16:17:28;12.25;;;6.22;;
44486;SDS011;30191;50.908;6.962;2022-12-07T16:19:54;10.63;;;5.30;;
44486;SDS011;30191;50.908;6.962;2022-12-07T16:22:20;8.02;;;4.00;;
44486;SDS011;30191;50.908;6.962;2022-12-07T16:24:45;12.32;;;4.60;;
44486;SDS011;30191;50.908;6.962;2022-12-07T16:27:11;6.35;;;3.58;;
44486;SDS011;30191;50.908;6.962;2022-12-07T16:29:37;6.55;;;3.35;;
44486;SDS011;30191;50.908;6.962;2022-12-07T16:32:02;8.13;;;3.22;;
44486;SDS011;30191;50.908;6.962;2022-12-07T16:34:28;6.72;;;3.45;;
44486;SDS011;30191;50.908;6.962;2022-12-07T16:36:53;8.93;;;3.47;;
44486;SDS011;30191;50.908;6.962;2022-12-07T16:39:19;6.05;;;3.25;;
44486;SDS011;30191;50.908;6.962;2022-12-07T16:41:45;8.60;;;3.65;;
44486;SDS011;30191;50.908;6.962;2022-12-07T16:44:11;7.57;;;3.70;;
44486;SDS011;30191;50.908;6.962;2022-12-07T16:46:38;8.38;;;3.65;;
44486;SDS011;30191;50.908;6.962;2022-12-07T16:49:04;4.00;;;2.90;;
44486;SDS011;30191;50.908;6.962;2022-12-07T16:51:30;5.55;;;3.10;;
44486;SDS011;30191;50.908;6.962;2022-12-07T16:53:56;7.82;;;2.83;;
44486;SDS011;30191;50.908;6.962;2022-12-07T16:56:22;5.78;;;3.20;;